香港 の空港の天気 - METARとTAF

香港国際空港 ( VHHH / HKG ) - 香港 赤リョウ角
飛行場実況気象(Metar)
観測時間01/23 12:00 HKT (01/23 04:00 UTC)
風向・風速西 3m/s
視程8000m
天気現象
少しの雲 雲底高度 760m
全天の4割程度の雲 雲底高度 1370m
気温22℃
湿度65%
気圧1015hPa
METARVHHH 230400Z 28006KT 8000 FEW025 SCT045 22/15 Q1015 NOSIG
過去の天気等 Google飛行場航空写真 Wunderground天気予報

過去48時間のMETAR

飛行場予報(TAF)
発表時間: 1/23 07:00 HKT (1/22 23:00 UTC)
予報対象時間: 23日8時 HKT ~ 24日14時 HKT
風向・風速東 5m/s
視程9,000m
少しの雲 雲底高度 610m
23日11時 HKT ~ 23日18時 HKT に一時的に
風向・風速西 5m/s
24日5時 HKT ~ 24日14時 HKT に一時的に
風向・風速東 8m/s 瞬間風速 13m/s
TAF VHHH 222300Z 2300/2406 09010KT 9000 FEW020 TX23/2306Z TX21/2406Z TN17/2323Z
TEMPO 2303/2310 27010KT
TEMPO 2321/2406 09015G25KT